Time,TemperatureF,DewpointF,PressureIn,WindDirection,WindDirectionDegrees,WindSpeedMPH,WindSpeedGustMPH,Humidity,HourlyPrecipIn,Conditions,Clouds,dailyrainin,SoftwareType,DateUTC
2013-07-06 00:02:00,72.0,71.0,30.02,ENE,72,2.0,7.0,97,0.00,,,0.22,,2013-07-06 05:02:00,
2013-07-06 00:12:00,72.0,71.0,30.02,East,92,3.0,9.0,97,0.00,,,0.22,,2013-07-06 05:12:00,
2013-07-06 00:22:00,72.0,71.0,30.02,East,92,3.0,9.0,97,0.00,,,0.22,,2013-07-06 05:22:00,
2013-07-06 00:33:00,72.0,71.0,30.02,ENE,72,3.0,7.0,97,0.00,,,0.22,,2013-07-06 05:33:00,
2013-07-06 00:42:00,72.0,71.0,30.01,East,84,1.0,5.0,97,0.00,,,0.22,,2013-07-06 05:42:00,
2013-07-06 00:53:00,72.0,71.0,30.01,ENE,71,2.0,7.0,98,0.00,,,0.22,,2013-07-06 05:53:00,
2013-07-06 01:02:00,72.0,71.0,30.01,ENE,71,2.0,7.0,98,0.00,,,0.22,,2013-07-06 06:02:00,
2013-07-06 01:12:00,71.0,70.0,30.01,ESE,109,1.0,5.0,98,0.00,,,0.22,,2013-07-06 06:12:00,
2013-07-06 01:22:00,71.0,70.0,30.01,East,100,0.0,3.0,98,0.00,,,0.22,,2013-07-06 06:22:00,
2013-07-06 01:34:00,71.0,70.0,30.01,East,100,0.0,3.0,98,0.00,,,0.22,,2013-07-06 06:34:00,
2013-07-06 01:43:00,71.0,70.0,30.01,SSE,160,0.0,4.0,98,0.00,,,0.22,,2013-07-06 06:43:00,
2013-07-06 01:53:00,71.0,70.0,30.01,ESE,103,0.0,3.0,98,0.00,,,0.22,,2013-07-06 06:53:00,
2013-07-06 02:02:00,71.0,70.0,30.01,ESE,103,0.0,3.0,98,0.00,,,0.22,,2013-07-06 07:02:00,
2013-07-06 02:12:00,71.0,70.0,30.00,NE,55,0.0,4.0,98,0.00,,,0.22,,2013-07-06 07:12:00,
2013-07-06 02:22:00,71.0,70.0,30.00,ENE,72,1.0,4.0,98,0.00,,,0.22,,2013-07-06 07:22:00,
2013-07-06 02:33:00,71.0,70.0,30.00,ENE,72,1.0,4.0,98,0.00,,,0.22,,2013-07-06 07:33:00,
2013-07-06 02:44:00,71.0,70.0,30.00,SE,139,0.0,4.0,98,0.00,,,0.22,,2013-07-06 07:44:00,
2013-07-06 02:52:00,71.0,70.0,30.01,SSE,149,0.0,2.0,98,0.00,,,0.22,,2013-07-06 07:52:00,
2013-07-06 03:02:00,71.0,70.0,30.01,SSE,149,0.0,2.0,98,0.00,,,0.22,,2013-07-06 08:02:00,
2013-07-06 03:12:00,71.0,70.0,30.01,ESE,113,0.0,2.0,98,0.00,,,0.22,,2013-07-06 08:12:00,
2013-07-06 03:21:00,71.0,70.0,30.01,ESE,113,0.0,2.0,98,0.00,,,0.22,,2013-07-06 08:21:00,
2013-07-06 03:34:00,71.0,70.0,30.01,East,84,0.0,3.0,98,0.00,,,0.22,,2013-07-06 08:34:00,
2013-07-06 03:43:00,72.0,71.0,30.01,ESE,105,0.0,3.0,98,0.00,,,0.22,,2013-07-06 08:43:00,
2013-07-06 03:54:00,72.0,71.0,30.00,ESE,113,0.0,3.0,98,0.00,,,0.22,,2013-07-06 08:54:00,
2013-07-06 04:02:00,72.0,71.0,30.00,ESE,113,0.0,3.0,98,0.00,,,0.22,,2013-07-06 09:02:00,
2013-07-06 04:11:00,72.0,71.0,30.00,ESE,105,0.0,2.0,98,0.00,,,0.22,,2013-07-06 09:11:00,
2013-07-06 04:33:00,72.0,71.0,30.01,ENE,72,0.0,2.0,98,0.00,,,0.22,,2013-07-06 09:33:00,
2013-07-06 04:43:00,72.0,71.0,30.01,ESE,120,0.0,3.0,98,0.00,,,0.22,,2013-07-06 09:43:00,
2013-07-06 04:52:00,72.0,71.0,30.02,ENE,75,0.0,2.0,98,0.00,,,0.22,,2013-07-06 09:52:00,
2013-07-06 05:02:00,72.0,71.0,30.02,ENE,75,0.0,2.0,98,0.00,,,0.22,,2013-07-06 10:02:00,
2013-07-06 05:11:00,72.0,71.0,30.02,ENE,68,1.0,3.0,98,0.00,,,0.22,,2013-07-06 10:11:00,
2013-07-06 05:33:00,72.0,71.0,30.02,ENE,70,0.0,1.0,98,0.00,,,0.22,,2013-07-06 10:33:00,
2013-07-06 05:42:00,72.0,71.0,30.02,SSE,148,1.0,4.0,98,0.00,,,0.22,,2013-07-06 10:42:00,
2013-07-06 05:53:00,72.0,71.0,30.02,ENE,70,2.0,4.0,98,0.00,,,0.22,,2013-07-06 10:53:00,
2013-07-06 06:01:00,72.0,71.0,30.02,ENE,70,2.0,4.0,98,0.00,,,0.22,,2013-07-06 11:01:00,
2013-07-06 06:11:00,72.0,71.0,30.02,SSE,160,1.0,3.0,98,0.00,,,0.22,,2013-07-06 11:11:00,
2013-07-06 06:33:00,72.0,71.0,30.03,ENE,75,0.0,2.0,98,0.00,,,0.22,,2013-07-06 11:33:00,
2013-07-06 06:43:00,72.0,71.0,30.03,ENE,60,0.0,3.0,98,0.00,,,0.22,,2013-07-06 11:43:00,
2013-07-06 06:53:00,72.0,71.0,30.03,NE,55,1.0,3.0,98,0.00,,,0.22,,2013-07-06 11:53:00,
2013-07-06 07:01:00,72.0,71.0,30.03,NE,55,1.0,3.0,98,0.00,,,0.22,,2013-07-06 12:01:00,
2013-07-06 07:12:00,72.0,71.0,30.03,ENE,78,1.0,4.0,98,0.00,,,0.22,,2013-07-06 12:12:00,
2013-07-06 07:33:00,72.0,71.0,30.03,ENE,65,1.0,5.0,97,0.00,,,0.22,,2013-07-06 12:33:00,
2013-07-06 07:43:00,72.0,71.0,30.03,NNW,345,0.0,5.0,97,0.00,,,0.22,,2013-07-06 12:43:00,
2013-07-06 07:52:00,73.0,72.0,30.04,ENE,70,1.0,4.0,97,0.00,,,0.22,,2013-07-06 12:52:00,
2013-07-06 08:01:00,73.0,72.0,30.04,ENE,70,1.0,4.0,97,0.00,,,0.22,,2013-07-06 13:01:00,
2013-07-06 08:12:00,73.0,72.0,30.04,ESE,110,3.0,5.0,97,0.00,,,0.22,,2013-07-06 13:12:00,
2013-07-06 08:22:00,73.0,72.0,30.04,ENE,70,1.0,6.0,97,0.00,,,0.22,,2013-07-06 13:22:00,
2013-07-06 08:33:00,73.0,72.0,30.04,ENE,70,1.0,6.0,97,0.00,,,0.22,,2013-07-06 13:33:00,
2013-07-06 08:43:00,74.0,73.0,30.04,ENE,75,2.0,5.0,96,0.00,,,0.22,,2013-07-06 13:43:00,
2013-07-06 08:52:00,75.0,73.0,30.04,ENE,60,2.0,9.0,94,0.00,,,0.22,,2013-07-06 13:52:00,
2013-07-06 09:12:00,75.0,73.0,30.04,NE,43,1.0,8.0,94,0.00,,,0.22,,2013-07-06 14:12:00,
2013-07-06 09:22:00,77.0,74.0,30.03,ENE,67,3.0,8.0,91,0.00,,,0.20,,2013-07-06 14:22:00,
2013-07-06 09:34:00,77.0,74.0,30.03,ENE,67,3.0,8.0,91,0.00,,,0.20,,2013-07-06 14:34:00,
2013-07-06 09:42:00,77.0,74.0,30.03,ESE,117,1.0,6.0,90,0.00,,,0.20,,2013-07-06 14:42:00,
2013-07-06 09:53:00,77.0,74.0,30.04,NE,47,3.0,8.0,90,0.01,,,0.21,,2013-07-06 14:53:00,
2013-07-06 10:02:00,77.0,74.0,30.04,NE,47,3.0,8.0,90,0.01,,,0.21,,2013-07-06 15:02:00,
2013-07-06 10:12:00,75.0,73.0,30.05,SSW,210,2.0,5.0,93,0.05,,,0.25,,2013-07-06 15:12:00,
2013-07-06 10:22:00,74.0,72.0,30.05,East,89,0.0,3.0,95,0.21,,,0.36,,2013-07-06 15:22:00,
2013-07-06 10:33:00,74.0,72.0,30.05,East,89,0.0,3.0,95,0.21,,,0.36,,2013-07-06 15:33:00,
2013-07-06 10:43:00,74.0,73.0,30.04,East,79,0.0,1.0,96,0.27,,,0.42,,2013-07-06 15:43:00,
2013-07-06 10:53:00,74.0,73.0,30.04,ENE,63,1.0,2.0,97,0.26,,,0.42,,2013-07-06 15:53:00,
2013-07-06 11:07:00,74.0,73.0,30.04,ENE,63,1.0,2.0,97,0.26,,,0.42,,2013-07-06 16:07:00,
2013-07-06 11:15:00,75.0,74.0,30.04,SE,131,0.0,2.0,98,0.22,,,0.42,,2013-07-06 16:15:00,
2013-07-06 11:26:00,77.0,76.0,30.03,ESE,112,1.0,3.0,96,0.05,,,0.36,,2013-07-06 16:26:00,
2013-07-06 12:01:00,78.0,76.0,30.03,SE,134,0.0,1.0,93,0.04,,,0.40,,2013-07-06 17:01:00,
2013-07-06 12:15:00,78.0,76.0,30.03,SE,134,0.0,1.0,93,0.04,,,0.40,,2013-07-06 17:15:00,
2013-07-06 12:44:00,77.0,75.0,30.03,SW,216,1.0,4.0,94,0.07,,,0.42,,2013-07-06 17:44:00,
2013-07-06 12:54:00,76.0,74.0,30.03,SW,224,1.0,7.0,94,0.09,,,0.47,,2013-07-06 17:54:00,
2013-07-06 13:01:00,75.0,73.0,30.03,SE,134,1.0,9.0,95,0.11,,,0.50,,2013-07-06 18:01:00,
2013-07-06 13:12:00,75.0,73.0,30.03,SE,134,1.0,9.0,95,0.11,,,0.50,,2013-07-06 18:12:00,
2013-07-06 13:25:00,74.0,72.0,30.03,SW,216,0.0,3.0,95,0.11,,,0.51,,2013-07-06 18:25:00,
2013-07-06 13:34:00,74.0,72.0,30.03,SE,135,0.0,2.0,95,0.09,,,0.51,,2013-07-06 18:34:00,
2013-07-06 13:55:00,74.0,72.0,30.03,SSW,208,0.0,2.0,95,0.06,,,0.53,,2013-07-06 18:55:00,
2013-07-06 14:01:00,74.0,73.0,30.03,SE,137,3.0,11.0,96,0.08,,,0.57,,2013-07-06 19:01:00,
2013-07-06 14:13:00,74.0,73.0,30.03,SE,137,3.0,11.0,96,0.08,,,0.57,,2013-07-06 19:13:00,
2013-07-06 14:30:00,73.0,72.0,30.03,SSW,204,0.0,4.0,97,0.24,,,0.75,,2013-07-06 19:30:00,
2013-07-06 14:45:00,73.0,72.0,30.03,SSW,204,0.0,4.0,97,0.24,,,0.75,,2013-07-06 19:45:00,
2013-07-06 14:54:00,75.0,74.0,30.02,SW,228,0.0,5.0,97,0.23,,,0.76,,2013-07-06 19:54:00,
2013-07-06 15:25:00,77.0,74.0,30.01,SSW,204,2.0,7.0,91,0.12,,,0.76,,2013-07-06 20:25:00,
2013-07-06 15:32:00,77.0,74.0,30.01,SSW,203,2.0,6.0,91,0.01,,,0.74,,2013-07-06 20:32:00,
2013-07-06 15:55:00,77.0,74.0,30.01,SSE,148,0.0,4.0,92,0.00,,,0.74,,2013-07-06 20:55:00,
2013-07-06 16:14:00,77.0,75.0,30.01,SE,132,0.0,3.0,93,0.00,,,0.74,,2013-07-06 21:14:00,
2013-07-06 16:22:00,76.0,74.0,30.01,ENE,72,1.0,4.0,94,0.01,,,0.75,,2013-07-06 21:22:00,
2013-07-06 16:45:00,75.0,73.0,30.01,ENE,68,1.0,5.0,95,0.06,,,0.79,,2013-07-06 21:45:00,
2013-07-06 16:55:00,75.0,74.0,30.02,NE,54,1.0,4.0,96,0.09,,,0.82,,2013-07-06 21:55:00,
2013-07-06 17:16:00,75.0,74.0,30.02,NE,53,0.0,5.0,96,0.09,,,0.82,,2013-07-06 22:16:00,
2013-07-06 17:33:00,76.0,74.0,30.00,SE,136,1.0,5.0,94,0.03,,,0.81,,2013-07-06 22:33:00,
2013-07-06 17:45:00,76.0,74.0,30.00,SE,136,1.0,5.0,94,0.03,,,0.81,,2013-07-06 22:45:00,
2013-07-06 17:55:00,76.0,74.0,29.99,South,181,1.0,3.0,94,0.00,,,0.81,,2013-07-06 22:55:00,
2013-07-06 18:01:00,76.0,74.0,29.99,SE,136,1.0,4.0,94,0.00,,,0.81,,2013-07-06 23:01:00,
2013-07-06 18:11:00,76.0,74.0,29.99,SE,136,1.0,4.0,94,0.00,,,0.81,,2013-07-06 23:11:00,
2013-07-06 18:33:00,74.0,73.0,29.99,ESE,105,0.0,4.0,96,0.05,,,0.86,,2013-07-06 23:33:00,
2013-07-06 18:46:00,74.0,73.0,29.99,ESE,105,0.0,4.0,96,0.05,,,0.86,,2013-07-06 23:46:00,
2013-07-06 19:06:00,73.0,72.0,30.01,SSW,194,0.0,5.0,97,0.00,,,0.86,,2013-07-07 00:06:00,
2013-07-06 19:17:00,74.0,73.0,30.00,SSE,149,0.0,6.0,97,0.05,,,0.86,,2013-07-07 00:17:00,
2013-07-06 19:25:00,73.0,72.0,30.00,ESE,110,2.0,8.0,97,0.02,,,0.86,,2013-07-07 00:25:00,
2013-07-06 19:32:00,73.0,72.0,30.01,SSW,194,0.0,5.0,97,0.00,,,0.86,,2013-07-07 00:32:00,
2013-07-06 19:55:00,73.0,72.0,30.01,SSW,194,0.0,5.0,97,0.00,,,0.86,,2013-07-07 00:55:00,
2013-07-06 20:23:00,72.0,71.0,30.02,SW,235,0.0,1.0,97,0.00,,,0.87,,2013-07-07 01:23:00,
2013-07-06 20:33:00,73.0,72.0,30.01,SSW,208,0.0,4.0,97,0.01,,,0.87,,2013-07-07 01:33:00,
2013-07-06 20:53:00,72.0,71.0,30.02,SW,235,0.0,1.0,97,0.00,,,0.87,,2013-07-07 01:53:00,
2013-07-06 21:00:00,72.0,71.0,30.02,SW,235,0.0,1.0,97,0.00,,,0.87,,2013-07-07 02:00:00,
2013-07-06 21:21:00,72.0,71.0,30.02,SW,235,0.0,1.0,97,0.00,,,0.87,,2013-07-07 02:21:00,
2013-07-06 23:11:00,72.0,71.0,30.03,SE,142,0.0,2.0,98,0.00,,,0.87,,2013-07-07 04:11:00,
2013-07-06 23:21:00,72.0,71.0,30.03,SE,142,0.0,2.0,98,0.00,,,0.87,,2013-07-07 04:21:00,
2013-07-06 23:31:00,72.0,71.0,30.03,SE,142,0.0,2.0,98,0.00,,,0.87,,2013-07-07 04:31:00,
2013-07-06 23:41:00,72.0,71.0,30.03,SE,142,0.0,2.0,98,0.00,,,0.87,,2013-07-07 04:41:00,
2013-07-06 23:51:00,72.0,71.0,30.03,SE,142,0.0,2.0,98,0.00,,,0.87,,2013-07-07 04:51:00,